Time;durP1;ratioP1;P1;durP2;ratioP2;P2;SDS_P1;SDS_P2;PMS_P1;PMS_P2;Temp;Humidity;BMP_temperature;BMP_pressure;BME280_temperature;BME280_humidity;BME280_pressure;Samples;Min_cycle;Max_cycle;Signal;HPM_P1;HPM_P2
2021/05/11 00:00:40;;;;;;;1.13;1.00;;;21.80;52.10;;;;;;10667450;27;20278;-14
2021/05/11 00:06:03;;;;;;;0.83;0.80;;;21.90;52.20;;;;;;10618589;27;20230;-14
2021/05/11 00:11:25;;;;;;;0.80;0.80;;;21.80;52.10;;;;;;10624550;28;20190;-13
2021/05/11 00:16:46;;;;;;;1.43;0.80;;;21.80;52.20;;;;;;10624673;28;20218;-14
2021/05/11 00:22:09;;;;;;;2.33;0.90;;;21.60;52.60;;;;;;10622786;28;20213;-14
2021/05/11 00:27:30;;;;;;;1.00;0.80;;;21.70;52.50;;;;;;10623332;28;20696;-15
2021/05/11 00:32:52;;;;;;;1.63;1.00;;;21.70;52.40;;;;;;10621824;28;20461;-14
2021/05/11 00:38:15;;;;;;;1.23;0.70;;;21.70;52.70;;;;;;10615574;28;20239;-14
2021/05/11 00:43:41;;;;;;;1.20;0.90;;;21.60;52.80;;;;;;10622315;28;20681;-16
2021/05/11 00:49:03;;;;;;;1.27;0.80;;;21.60;53.00;;;;;;10621563;28;20202;-15
2021/05/11 00:54:26;;;;;;;0.90;0.80;;;21.60;52.80;;;;;;10625374;27;20202;-14
2021/05/11 00:59:51;;;;;;;0.93;0.77;;;21.70;52.80;;;;;;10628306;27;20721;-15
2021/05/11 01:05:13;;;;;;;1.13;0.87;;;21.70;52.60;;;;;;10620283;27;20234;-16
2021/05/11 01:10:36;;;;;;;1.23;0.90;;;21.80;52.50;;;;;;10630330;27;20227;-15
2021/05/11 01:15:58;;;;;;;0.83;0.70;;;21.60;52.60;;;;;;10631580;27;20211;-15
2021/05/11 01:21:29;;;;;;;1.77;0.70;;;21.50;52.90;;;;;;10631216;27;20237;-14
2021/05/11 01:26:55;;;;;;;0.90;0.80;;;21.50;52.80;;;;;;10630568;27;20214;-15
2021/05/11 01:32:40;;;;;;;0.73;0.70;;;21.60;52.90;;;;;;10630768;27;20266;-15
2021/05/11 01:49:48;;;;;;;1.00;0.60;;;21.50;52.90;;;;;;10585660;28;20191;-14
2021/05/11 02:23:32;;;;;;;0.83;0.70;;;21.50;52.80;;;;;;10628362;27;20214;-13
2021/05/11 02:28:53;;;;;;;0.77;0.77;;;21.50;53.10;;;;;;10624920;27;20199;-13
2021/05/11 02:34:15;;;;;;;0.70;0.60;;;21.40;53.10;;;;;;10627582;27;20202;-15
2021/05/11 02:39:38;;;;;;;0.97;0.87;;;21.40;53.10;;;;;;10627792;27;20194;-15
2021/05/11 02:45:00;;;;;;;1.27;0.77;;;21.40;53.20;;;;;;10623836;27;20222;-14
2021/05/11 02:50:24;;;;;;;0.57;0.57;;;21.40;53.00;;;;;;10626969;27;20194;-13
2021/05/11 02:55:45;;;;;;;0.67;0.60;;;21.40;53.30;;;;;;10627168;27;20218;-14
2021/05/11 03:01:07;;;;;;;1.17;0.70;;;21.50;53.30;;;;;;10625964;27;20236;-16
2021/05/11 03:06:29;;;;;;;0.47;0.47;;;21.40;53.00;;;;;;10591435;22;20228;-14
2021/05/11 03:11:52;;;;;;;0.73;0.50;;;21.30;53.10;;;;;;10500623;28;20706;-17
2021/05/11 03:17:13;;;;;;;1.03;0.70;;;21.30;53.30;;;;;;10522409;28;20223;-17
2021/05/11 03:22:36;;;;;;;0.60;0.60;;;21.40;53.30;;;;;;10547205;28;20212;-17
2021/05/11 03:27:59;;;;;;;0.77;0.67;;;21.30;53.40;;;;;;10563184;28;20260;-18
2021/05/11 03:33:21;;;;;;;0.60;0.60;;;21.30;53.40;;;;;;10556187;28;20196;-15
2021/05/11 03:38:45;;;;;;;0.63;0.50;;;21.30;53.40;;;;;;10535646;28;20736;-18
2021/05/11 03:44:09;;;;;;;1.00;0.70;;;21.30;52.80;;;;;;10552176;28;20207;-19
2021/05/11 03:49:31;;;;;;;0.60;0.50;;;21.30;52.80;;;;;;10535933;28;20257;-14
2021/05/11 03:54:53;;;;;;;0.60;0.60;;;21.40;53.00;;;;;;10552181;28;20191;-18
2021/05/11 04:00:16;;;;;;;0.57;0.57;;;21.50;52.80;;;;;;10538282;28;20231;-17
2021/05/11 04:05:37;;;;;;;0.60;0.50;;;21.40;52.60;;;;;;10537914;28;20248;-17
2021/05/11 04:11:08;;;;;;;0.83;0.50;;;21.40;52.70;;;;;;10507103;28;20659;-15
2021/05/11 04:16:30;;;;;;;1.23;0.70;;;21.50;52.70;;;;;;10482384;28;20263;-15
2021/05/11 04:21:51;;;;;;;0.63;0.63;;;21.50;52.60;;;;;;10463711;28;20608;-17
2021/05/11 04:27:14;;;;;;;0.77;0.50;;;21.50;52.70;;;;;;10460632;28;20217;-17
2021/05/11 04:32:35;;;;;;;0.60;0.60;;;21.60;52.70;;;;;;10463283;28;20552;-17
2021/05/11 04:37:57;;;;;;;0.60;0.40;;;21.50;52.70;;;;;;10482176;28;20239;-15
2021/05/11 04:43:24;;;;;;;0.60;0.50;;;21.50;52.80;;;;;;10483642;28;20221;-15
2021/05/11 04:48:46;;;;;;;0.90;0.67;;;21.60;52.60;;;;;;10475167;28;20209;-19
2021/05/11 04:54:07;;;;;;;0.43;0.43;;;21.50;52.60;;;;;;10469269;28;20238;-17
2021/05/11 04:59:30;;;;;;;0.67;0.60;;;21.60;52.60;;;;;;10472351;28;20220;-15
2021/05/11 05:04:51;;;;;;;0.83;0.53;;;21.60;52.40;;;;;;10469564;28;20228;-17
2021/05/11 05:10:14;;;;;;;1.10;0.60;;;21.40;52.80;;;;;;10467983;28;20424;-15
2021/05/11 05:15:36;;;;;;;0.60;0.53;;;22.00;51.30;;;;;;10499149;28;20187;-18
2021/05/11 05:20:58;;;;;;;1.03;0.53;;;21.60;52.30;;;;;;10552321;28;20216;-17
2021/05/11 05:26:21;;;;;;;0.60;0.50;;;21.60;52.60;;;;;;10550647;28;20710;-17
2021/05/11 05:31:44;;;;;;;0.60;0.57;;;21.80;52.10;;;;;;10548834;28;20192;-14
2021/05/11 05:37:06;;;;;;;0.93;0.50;;;21.90;51.70;;;;;;10549531;28;20208;-17
2021/05/11 05:42:27;;;;;;;1.33;0.50;;;21.90;51.70;;;;;;10536341;28;20219;-17
2021/05/11 05:47:52;;;;;;;1.20;0.60;;;21.80;51.90;;;;;;10545392;28;20215;-17
2021/05/11 05:53:21;;;;;;;0.50;0.50;;;21.70;52.10;;;;;;10506418;28;20527;-15
2021/05/11 05:58:43;;;;;;;0.70;0.67;;;21.70;52.20;;;;;;10512588;28;20708;-17
2021/05/11 06:04:12;;;;;;;0.70;0.50;;;21.80;52.20;;;;;;10513773;28;20216;-14
2021/05/11 06:09:34;;;;;;;0.80;0.53;;;21.70;52.30;;;;;;10513552;28;20256;-16
2021/05/11 06:17:02;;;;;;;0.70;0.50;;;21.80;52.10;;;;;;10512572;28;20197;-17
2021/05/11 06:20:43;;;;;;;0.57;0.50;;;21.70;52.10;;;;;;10510900;28;20226;-14
2021/05/11 06:26:06;;;;;;;1.10;0.57;;;21.70;52.20;;;;;;10510875;28;20220;-17
2021/05/11 06:31:28;;;;;;;0.53;0.53;;;21.50;52.40;;;;;;10511651;28;20188;-17
2021/05/11 06:36:50;;;;;;;1.13;0.60;;;21.70;52.20;;;;;;10510947;28;20216;-14
2021/05/11 06:42:12;;;;;;;0.90;0.43;;;21.80;51.90;;;;;;10528352;28;20236;-16
2021/05/11 06:53:14;;;;;;;1.27;0.50;;;21.90;51.50;;;;;;10536682;28;20192;-17
2021/05/11 06:58:36;;;;;;;0.70;0.50;;;21.90;51.60;;;;;;10548576;28;20207;-17
2021/05/11 07:03:57;;;;;;;0.30;0.30;;;21.70;52.00;;;;;;10545304;28;20227;-14
2021/05/11 07:09:29;;;;;;;0.70;0.50;;;21.70;52.00;;;;;;10540464;28;20228;-17
2021/05/11 07:14:50;;;;;;;0.50;0.40;;;21.80;51.90;;;;;;10535567;28;20192;-14
2021/05/11 07:20:13;;;;;;;2.00;0.60;;;21.80;51.70;;;;;;10499932;28;20227;-13
2021/05/11 07:25:40;;;;;;;2.37;1.00;;;21.80;52.00;;;;;;10476708;28;20707;-15
2021/05/11 07:31:03;;;;;;;3.77;1.10;;;21.20;53.60;;;;;;10524150;28;20199;-15
2021/05/11 07:36:25;;;;;;;1.50;0.63;;;20.70;54.70;;;;;;10501905;28;20219;-14
2021/05/11 07:41:48;;;;;;;1.83;0.80;;;20.50;56.40;;;;;;10512349;28;20211;-15
2021/05/11 07:47:13;;;;;;;4.23;1.30;;;20.50;55.70;;;;;;10546367;28;20698;-15
2021/05/11 08:04:14;;;;;;;3.27;0.97;;;20.20;56.70;;;;;;10495129;28;20258;-17
2021/05/11 08:09:54;;;;;;;3.77;0.97;;;20.40;57.00;;;;;;10495840;28;20714;-14
2021/05/11 08:15:24;;;;;;;3.30;1.10;;;20.30;57.50;;;;;;10510923;28;20195;-17
2021/05/11 08:32:17;;;;;;;4.23;1.07;;;20.20;58.30;;;;;;10458257;28;20182;-17
2021/05/11 08:37:39;;;;;;;2.83;1.00;;;20.30;57.10;;;;;;10459483;28;20738;-14
2021/05/11 08:43:03;;;;;;;2.03;0.77;;;20.60;56.60;;;;;;10503494;28;20715;-18
2021/05/11 08:48:25;;;;;;;1.93;0.60;;;21.00;55.20;;;;;;10495257;28;20710;-15
2021/05/11 08:54:08;;;;;;;3.27;1.00;;;21.10;54.50;;;;;;10502535;28;20242;-18
2021/05/11 09:05:23;;;;;;;0.90;0.50;;;21.20;54.00;;;;;;10503900;28;20249;-15
2021/05/11 09:16:47;;;;;;;2.37;0.67;;;21.30;53.60;;;;;;10478506;28;20193;-15
2021/05/11 09:27:56;;;;;;;1.90;0.63;;;21.50;53.30;;;;;;10412900;28;20222;-13
2021/05/11 09:33:28;;;;;;;1.67;0.70;;;21.50;53.30;;;;;;10414737;28;20193;-14
2021/05/11 10:48:26;;;;;;;1.30;0.60;;;21.60;52.90;;;;;;10412881;28;20244;-15
2021/05/11 10:53:58;;;;;;;0.90;0.50;;;21.70;53.00;;;;;;10425685;28;20220;-15
2021/05/11 10:59:29;;;;;;;1.17;0.50;;;21.70;52.90;;;;;;10409375;28;20292;-15
2021/05/11 11:04:52;;;;;;;1.13;0.40;;;21.70;53.00;;;;;;10411257;28;20736;-14
2021/05/11 11:10:15;;;;;;;1.37;0.50;;;21.60;53.30;;;;;;10410497;28;20620;-14
2021/05/11 11:15:37;;;;;;;0.90;0.40;;;21.70;53.00;;;;;;10415093;28;20272;-14
2021/05/11 11:21:08;;;;;;;0.60;0.50;;;21.70;53.00;;;;;;10442789;28;20263;-15
2021/05/11 11:26:31;;;;;;;0.73;0.40;;;21.70;53.10;;;;;;10446673;28;20569;-9
2021/05/11 11:31:53;;;;;;;2.20;0.60;;;22.00;52.50;;;;;;10411961;28;20194;-10
2021/05/11 11:37:16;;;;;;;0.80;0.30;;;21.90;52.50;;;;;;10409215;28;20218;-11
2021/05/11 11:42:40;;;;;;;0.87;0.40;;;21.70;52.60;;;;;;10450118;28;20216;-10
2021/05/11 11:48:03;;;;;;;1.70;0.50;;;21.70;52.90;;;;;;10451818;28;20296;-12
2021/05/11 11:53:33;;;;;;;0.80;0.40;;;21.70;52.80;;;;;;10450735;28;20193;-10
2021/05/11 11:59:04;;;;;;;0.67;0.30;;;21.80;52.70;;;;;;10415983;28;20217;-10
2021/05/11 12:04:26;;;;;;;0.70;0.33;;;22.00;52.10;;;;;;10438542;28;20694;-10
2021/05/11 12:09:48;;;;;;;1.30;0.30;;;22.20;52.30;;;;;;10420434;28;20328;-11
2021/05/11 12:15:11;;;;;;;1.47;0.60;;;22.30;51.30;;;;;;10440958;28;20688;-8
2021/05/11 12:20:33;;;;;;;1.13;0.53;;;22.40;51.10;;;;;;10450166;28;20224;-10
2021/05/11 12:25:58;;;;;;;0.87;0.30;;;22.40;50.90;;;;;;10440487;28;20232;-10
2021/05/11 12:31:35;;;;;;;0.97;0.50;;;22.50;50.80;;;;;;10451179;28;20219;-8
2021/05/11 12:37:00;;;;;;;1.37;0.50;;;22.50;50.70;;;;;;10449702;28;20214;-12
2021/05/11 12:42:24;;;;;;;1.17;0.30;;;22.50;50.80;;;;;;10451016;28;20757;-10
2021/05/11 12:47:48;;;;;;;0.90;0.30;;;22.40;51.00;;;;;;10446336;28;20225;-10
2021/05/11 12:53:29;;;;;;;0.97;0.40;;;22.30;51.30;;;;;;10418773;28;20772;-9
2021/05/11 12:59:03;;;;;;;1.63;0.40;;;22.20;51.60;;;;;;10417253;28;20210;-11
2021/05/11 13:27:26;;;;;;;1.00;0.40;;;22.10;52.00;;;;;;10444834;28;20241;-8
2021/05/11 13:32:57;;;;;;;0.77;0.47;;;22.10;52.00;;;;;;10415481;28;20198;-11
2021/05/11 13:38:20;;;;;;;0.90;0.50;;;22.10;52.10;;;;;;10415927;28;20685;-10
2021/05/11 13:43:41;;;;;;;0.77;0.50;;;22.00;52.10;;;;;;10414296;28;20221;-12
2021/05/11 13:49:04;;;;;;;0.63;0.30;;;22.10;52.20;;;;;;10442651;28;20217;-8
2021/05/11 13:54:26;;;;;;;0.73;0.20;;;22.00;52.10;;;;;;10455876;28;20537;-10
2021/05/11 14:05:28;;;;;;;1.13;0.40;;;22.10;52.00;;;;;;10456594;28;20236;-13
2021/05/11 14:10:50;;;;;;;1.40;0.50;;;22.10;52.00;;;;;;10442331;28;20687;-11
2021/05/11 14:16:12;;;;;;;1.17;0.37;;;22.20;52.10;;;;;;10424657;28;20251;-9
2021/05/11 14:21:34;;;;;;;0.93;0.50;;;22.20;51.80;;;;;;10452909;28;20220;-10
2021/05/11 14:26:56;;;;;;;0.87;0.43;;;22.10;51.90;;;;;;10451788;28;20213;-11
2021/05/11 14:32:17;;;;;;;0.47;0.20;;;22.10;51.90;;;;;;10453619;28;20200;-11
2021/05/11 14:37:40;;;;;;;0.60;0.33;;;22.00;52.20;;;;;;10413821;28;20241;-9
2021/05/11 14:43:01;;;;;;;1.30;0.40;;;22.00;52.30;;;;;;10410304;28;20229;-9
2021/05/11 14:48:23;;;;;;;0.87;0.40;;;22.00;52.10;;;;;;10450566;28;20217;-9
2021/05/11 14:53:47;;;;;;;1.70;0.50;;;22.00;52.20;;;;;;10454699;28;20192;-12
2021/05/11 14:59:10;;;;;;;0.77;0.60;;;21.90;52.30;;;;;;10443135;28;20220;-10
2021/05/11 15:04:31;;;;;;;1.10;0.50;;;21.90;52.30;;;;;;10451966;28;20220;-12
2021/05/11 15:09:54;;;;;;;2.10;0.60;;;22.10;52.10;;;;;;10485631;22;20232;-14
2021/05/11 15:15:18;;;;;;;1.30;0.77;;;22.00;52.10;;;;;;10512289;28;20196;-13
2021/05/11 15:20:40;;;;;;;1.17;0.63;;;22.10;52.00;;;;;;10508568;28;20213;-12
2021/05/11 15:26:03;;;;;;;1.20;0.93;;;22.00;52.00;;;;;;10496670;28;20223;-12
2021/05/11 15:31:24;;;;;;;3.27;1.10;;;22.00;52.10;;;;;;10523248;28;20242;-12
2021/05/11 15:36:46;;;;;;;2.37;1.10;;;22.00;52.10;;;;;;10528296;28;20199;-13
2021/05/11 15:42:08;;;;;;;1.37;1.00;;;22.00;52.20;;;;;;10521430;28;20219;-12
2021/05/11 15:47:30;;;;;;;2.00;0.93;;;22.00;52.40;;;;;;10535017;28;20230;-12
2021/05/11 15:52:53;;;;;;;2.07;0.90;;;22.00;52.40;;;;;;10535477;28;20196;-14
2021/05/11 15:58:17;;;;;;;2.47;1.20;;;22.00;52.50;;;;;;10504606;28;20294;-15
2021/05/11 16:03:39;;;;;;;0.97;0.87;;;21.90;52.30;;;;;;10534169;28;20243;-13
2021/05/11 16:09:01;;;;;;;3.43;1.27;;;21.90;52.50;;;;;;10534144;28;20223;-13
2021/05/11 16:14:23;;;;;;;1.53;0.73;;;22.00;52.30;;;;;;10528995;28;20238;-12
2021/05/11 16:19:47;;;;;;;2.37;0.90;;;22.00;52.20;;;;;;10511671;28;20220;-12
2021/05/11 16:25:11;;;;;;;1.30;0.80;;;22.00;52.20;;;;;;10497706;28;20357;-13
2021/05/11 16:30:36;;;;;;;1.57;0.70;;;22.00;52.20;;;;;;10539663;28;20218;-13
2021/05/11 16:35:57;;;;;;;1.40;0.80;;;22.00;52.10;;;;;;10531794;28;20192;-12
2021/05/11 16:41:19;;;;;;;1.80;0.60;;;22.00;52.20;;;;;;10500955;28;20220;-13
2021/05/11 16:46:41;;;;;;;0.97;0.60;;;22.00;52.30;;;;;;10516132;28;20200;-13
2021/05/11 16:52:03;;;;;;;1.33;0.70;;;22.00;52.20;;;;;;10541904;28;20188;-12
2021/05/11 16:57:25;;;;;;;1.33;0.90;;;22.00;52.40;;;;;;10541370;28;20243;-12
2021/05/11 17:02:47;;;;;;;1.57;0.70;;;22.00;52.30;;;;;;10541354;28;20280;-12
2021/05/11 17:08:11;;;;;;;2.57;0.80;;;22.00;52.50;;;;;;10555346;28;20230;-14
2021/05/11 17:13:38;;;;;;;1.43;0.70;;;22.10;52.20;;;;;;10516718;28;20196;-13
2021/05/11 17:19:01;;;;;;;3.30;0.87;;;22.10;52.30;;;;;;10533133;28;20643;-12
2021/05/11 17:24:22;;;;;;;3.63;1.00;;;21.90;52.90;;;;;;10539943;28;20690;-13
2021/05/11 17:29:44;;;;;;;2.13;1.00;;;21.90;53.50;;;;;;10538698;28;20277;-13
2021/05/11 17:35:10;;;;;;;3.27;1.13;;;22.00;54.30;;;;;;10534331;28;20200;-13
2021/05/11 17:40:32;;;;;;;4.93;1.20;;;22.00;54.80;;;;;;10536870;28;20594;-14
2021/05/11 17:45:54;;;;;;;3.27;1.10;;;22.00;55.40;;;;;;10538041;28;20585;-13
2021/05/11 17:51:17;;;;;;;2.53;1.00;;;22.10;55.70;;;;;;10538799;28;20219;-12
2021/05/11 17:56:39;;;;;;;2.23;1.10;;;22.10;54.90;;;;;;10538630;28;20183;-13
2021/05/11 18:02:00;;;;;;;5.03;1.27;;;22.10;55.00;;;;;;10538181;28;20429;-14
2021/05/11 18:07:23;;;;;;;3.07;1.03;;;22.40;54.10;;;;;;10521477;28;20462;-13
2021/05/11 18:12:45;;;;;;;2.57;1.27;;;22.20;54.10;;;;;;10506062;28;20191;-12
2021/05/11 18:18:06;;;;;;;1.63;1.03;;;22.10;54.30;;;;;;10512204;28;20221;-12
2021/05/11 18:23:29;;;;;;;1.70;1.07;;;22.10;54.00;;;;;;10496607;28;20257;-13
2021/05/11 18:28:50;;;;;;;2.93;1.20;;;22.10;54.00;;;;;;10535518;28;20203;-15
2021/05/11 18:34:12;;;;;;;2.90;0.90;;;22.10;54.00;;;;;;10536517;28;20746;-13
2021/05/11 18:39:36;;;;;;;2.50;1.20;;;22.10;54.10;;;;;;10519636;28;20564;-13
2021/05/11 18:44:57;;;;;;;1.07;0.60;;;22.10;54.00;;;;;;10495768;28;20691;-13
2021/05/11 18:50:19;;;;;;;2.87;0.73;;;22.10;53.90;;;;;;10494590;28;20695;-13
2021/05/11 18:55:41;;;;;;;3.63;1.10;;;22.10;53.90;;;;;;10496137;28;20192;-13
2021/05/11 19:01:03;;;;;;;1.47;0.90;;;22.10;53.90;;;;;;10528292;28;20212;-14
2021/05/11 19:06:25;;;;;;;1.47;0.80;;;22.20;53.90;;;;;;10537458;28;20215;-11
2021/05/11 19:11:48;;;;;;;2.40;0.90;;;22.20;53.60;;;;;;10536386;28;20240;-13
2021/05/11 19:17:10;;;;;;;9.43;1.13;;;22.30;53.40;;;;;;10527511;28;20204;-13
2021/05/11 19:22:32;;;;;;;1.57;0.83;;;22.30;53.20;;;;;;10535025;28;20204;-12
2021/05/11 19:27:56;;;;;;;3.40;1.10;;;22.20;53.60;;;;;;10512877;28;20435;-12
2021/05/11 19:33:18;;;;;;;1.80;0.80;;;22.90;51.70;;;;;;10494827;28;20227;-12
2021/05/11 19:38:40;;;;;;;2.83;0.97;;;22.70;51.80;;;;;;10493311;28;20216;-13
2021/05/11 19:44:05;;;;;;;6.13;1.00;;;22.80;51.90;;;;;;10495237;28;20595;-12
2021/05/11 19:49:27;;;;;;;3.47;1.17;;;22.90;51.70;;;;;;10533550;28;20230;-15
2021/05/11 19:54:49;;;;;;;4.63;1.07;;;22.90;51.80;;;;;;10535397;28;20272;-13
2021/05/11 20:00:13;;;;;;;1.70;0.60;;;22.90;51.80;;;;;;10534577;28;20245;-14
2021/05/11 20:05:35;;;;;;;3.73;0.90;;;22.90;51.60;;;;;;10536290;28;20241;-12
2021/05/11 20:10:57;;;;;;;1.37;0.83;;;22.90;51.80;;;;;;10534832;28;20230;-13
2021/05/11 20:16:20;;;;;;;1.40;0.90;;;23.00;51.50;;;;;;10523070;28;20195;-12
2021/05/11 20:21:41;;;;;;;1.60;0.93;;;23.10;51.00;;;;;;10525209;28;20219;-14
2021/05/11 20:27:03;;;;;;;1.30;0.90;;;23.20;50.70;;;;;;10533145;28;20180;-13
2021/05/11 20:32:26;;;;;;;1.23;0.90;;;23.30;50.50;;;;;;10533253;28;20195;-13
2021/05/11 20:37:50;;;;;;;2.33;0.90;;;23.20;50.50;;;;;;10533567;28;20281;-12
2021/05/11 20:43:13;;;;;;;1.87;1.00;;;23.20;50.50;;;;;;10512916;28;20222;-13
2021/05/11 20:48:35;;;;;;;1.10;0.80;;;23.20;50.70;;;;;;10525481;28;20218;-13
2021/05/11 20:53:57;;;;;;;1.57;0.80;;;23.10;50.70;;;;;;10534802;28;20203;-13
2021/05/11 20:59:19;;;;;;;2.50;1.17;;;23.10;51.00;;;;;;10532033;28;20216;-14
2021/05/11 21:04:41;;;;;;;1.07;0.77;;;23.10;51.10;;;;;;10534097;28;20705;-13
2021/05/11 21:10:04;;;;;;;1.37;0.93;;;23.10;51.00;;;;;;10535565;28;20227;-12
2021/05/11 21:15:26;;;;;;;2.17;1.00;;;22.80;51.30;;;;;;10555098;22;20239;-9
2021/05/11 21:20:49;;;;;;;2.53;1.10;;;22.50;52.00;;;;;;10528348;28;20211;-11
2021/05/11 21:26:10;;;;;;;1.73;0.90;;;22.40;52.40;;;;;;10496521;28;20212;-10
2021/05/11 21:31:33;;;;;;;2.93;0.90;;;22.30;52.80;;;;;;10490550;28;20200;-10
2021/05/11 21:36:56;;;;;;;1.27;0.80;;;22.30;52.70;;;;;;10498742;28;20240;-9
2021/05/11 21:42:19;;;;;;;1.60;0.67;;;22.20;52.70;;;;;;10500710;28;20591;-8
2021/05/11 21:47:42;;;;;;;0.70;0.70;;;22.10;53.00;;;;;;10490085;28;20204;-9
2021/05/11 21:53:08;;;;;;;0.63;0.50;;;22.10;53.10;;;;;;10467983;28;20291;-9
2021/05/11 21:58:29;;;;;;;1.77;0.80;;;22.10;53.20;;;;;;10468054;28;20193;-9
2021/05/11 22:03:52;;;;;;;1.07;0.70;;;22.00;53.50;;;;;;10474562;28;20247;-10
2021/05/11 22:09:15;;;;;;;1.20;0.80;;;21.90;53.50;;;;;;10496983;28;20200;-12
2021/05/11 22:14:37;;;;;;;1.27;0.80;;;22.00;53.20;;;;;;10496609;28;20278;-7
2021/05/11 22:19:58;;;;;;;1.23;0.80;;;22.00;53.20;;;;;;10496324;28;20258;-13
2021/05/11 22:25:21;;;;;;;2.37;0.87;;;22.00;53.40;;;;;;10496771;28;20698;-10
2021/05/11 22:30:43;;;;;;;0.93;0.70;;;21.90;53.40;;;;;;10496853;28;20686;-11
2021/05/11 22:36:05;;;;;;;1.50;0.80;;;21.80;53.70;;;;;;10496548;28;20245;-11
2021/05/11 22:41:29;;;;;;;0.87;0.63;;;21.80;53.70;;;;;;10496433;28;20663;-9
2021/05/11 22:46:51;;;;;;;1.20;0.73;;;21.80;53.80;;;;;;10487075;28;20314;-9
2021/05/11 22:52:13;;;;;;;1.27;0.80;;;21.80;53.40;;;;;;10495748;28;20196;-11
2021/05/11 22:57:36;;;;;;;1.20;0.70;;;21.80;53.60;;;;;;10485351;28;20564;-10
2021/05/11 23:02:58;;;;;;;1.13;0.90;;;21.70;53.60;;;;;;10494934;28;20572;-9
2021/05/11 23:08:19;;;;;;;1.37;0.77;;;21.70;53.70;;;;;;10493573;28;20200;-10
2021/05/11 23:13:43;;;;;;;0.97;0.67;;;21.70;53.60;;;;;;10495061;28;20227;-9
2021/05/11 23:19:13;;;;;;;1.13;0.70;;;21.70;53.50;;;;;;10480700;28;20284;-8
2021/05/11 23:24:34;;;;;;;1.20;0.73;;;21.60;53.70;;;;;;10534486;28;20593;-11
2021/05/11 23:29:57;;;;;;;1.70;0.70;;;21.50;54.00;;;;;;10517031;28;20614;-11
2021/05/11 23:35:20;;;;;;;2.17;0.93;;;21.50;54.00;;;;;;10491109;28;20223;-10
2021/05/11 23:40:42;;;;;;;0.57;0.57;;;21.50;53.90;;;;;;10493396;28;20199;-9
2021/05/11 23:46:04;;;;;;;1.73;0.63;;;21.50;54.00;;;;;;10463675;28;20236;-9
2021/05/11 23:51:26;;;;;;;0.83;0.60;;;21.40;54.00;;;;;;10451452;28;20189;-10
2021/05/11 23:56:49;;;;;;;0.93;0.50;;;21.40;54.20;;;;;;10450755;28;20213;-8
